Ana Sayfa
METAR-TAF:

METAR-TAF

Havaalanları :

Tongatapu, Tonga

Enlem: 21-14S, Boylam: 175-09W, yükseklik: 38 m

Güncel hava durumu gözlemi

Rapor saat 23:00 UTC de 58 dakika önce yapıldı.
Rüzgar güneydan 8 kt
Sıcaklık 27°C
Nem 70%
Basınç 1015 hPa
Görüş mesafesi 10 km veya daha fazla
1700 ft yükseklikte az bulutlu, Yükselen kümülüs.

METAR: NFTF 252300Z 17008KT 9999 FEW017TCU 27/21 Q1015

Saat: 12:58 (23:58 UTC)

Tahmin

Rapor saat 23:04 UTC de 54 dakika önce yapıldı.
Ayın 26'si saat 00 UTC'den ayın 26'si saat 24 UTC'ye kadar geçerli Tahmin
Rüzgar güneydan 8 kt
Görüş mesafesi 10 km veya daha fazla
1500 ft yükseklikte az bulutlu

TAF: NFTF 252304Z 2600/2624 17008KT 9999 FEW015

4.000'den fazla havaalanı için hava durumu gözlemleri ve tahminleri (METAR ve TAF raporları).

Kullanılabilir istasyonlar harita üzerinde sarı ve kırmızı noktalarla gösterilir.

İstasyonun adını görmek için fareyi noktanın üzerinde gezdirin.

Sonrasında hava gözlem ve tahminlerini görmek için tıklayın.

Haritayı değiştirmek için: yaklaştırmak için siyah artı işaretli yeşil düğmeye ve uzaklaştırmak için de eksi işaretli düğmeye hızla tıklayın; bitişik haritalar için yeşil okları kullanın.


METAR-TAF: